createdAt,value
2023-05-27T00:04:36.974Z,12.37
2023-05-27T00:08:29.030Z,12.29
2023-05-27T00:12:11.791Z,12.28
2023-05-27T00:23:52.936Z,12.18
2023-05-27T00:27:24.230Z,12.11
2023-05-27T00:31:14.173Z,12.07
2023-05-27T00:35:07.011Z,12.00
2023-05-27T00:38:53.124Z,11.92
2023-05-27T00:54:16.793Z,11.65
2023-05-27T00:57:42.069Z,11.59
2023-05-27T01:01:34.607Z,11.52
2023-05-27T01:13:42.948Z,11.44
2023-05-27T01:17:36.491Z,11.39
2023-05-27T01:21:28.966Z,11.36
2023-05-27T01:25:11.197Z,11.36
2023-05-27T01:52:25.318Z,11.50
2023-05-27T01:56:00.136Z,11.41
2023-05-27T01:59:42.998Z,11.39
2023-05-27T02:29:33.292Z,11.51
2023-05-27T02:33:14.840Z,11.52
2023-05-27T02:36:28.819Z,11.55
2023-05-27T02:40:19.897Z,11.58
2023-05-27T03:02:02.202Z,11.82
2023-05-27T03:05:55.598Z,11.83
2023-05-27T03:09:46.898Z,11.83
2023-05-27T03:13:41.127Z,11.85
2023-05-27T03:29:03.110Z,12.07
2023-05-27T03:32:48.508Z,12.11
2023-05-27T03:36:42.116Z,12.17
2023-05-27T03:55:22.328Z,12.36
2023-05-27T03:59:15.782Z,12.41
2023-05-27T04:03:03.964Z,12.51
2023-05-27T04:07:06.384Z,12.62
2023-05-27T04:22:00.066Z,13.09
2023-05-27T04:25:52.068Z,13.19
2023-05-27T04:52:23.419Z,14.13
2023-05-27T04:55:58.921Z,14.29
2023-05-27T04:59:44.232Z,14.46
2023-05-27T05:03:02.963Z,14.63
2023-05-27T05:52:21.109Z,16.85
2023-05-27T05:55:26.345Z,16.99
2023-05-27T05:58:37.417Z,17.17
2023-05-27T06:04:27.397Z,17.46
2023-05-27T06:07:29.983Z,17.58
2023-05-27T06:10:26.121Z,17.73
2023-05-27T06:13:29.302Z,17.88
2023-05-27T06:16:14.462Z,18.04
2023-05-27T06:19:08.532Z,18.17
2023-05-27T06:22:10.967Z,18.29
2023-05-27T06:25:22.227Z,18.42
2023-05-27T06:28:28.298Z,18.54
2023-05-27T06:31:29.543Z,18.63
2023-05-27T06:34:20.297Z,18.78
2023-05-27T06:37:00.895Z,19.00
2023-05-27T06:39:35.377Z,19.29
2023-05-27T06:42:16.710Z,19.57
2023-05-27T06:45:14.546Z,19.85
2023-05-27T06:47:55.230Z,20.03
2023-05-27T06:50:38.745Z,20.23
2023-05-27T06:53:12.242Z,20.43
2023-05-27T06:56:29.891Z,20.54
2023-05-27T06:59:35.512Z,20.75
2023-05-27T07:02:16.308Z,20.94
2023-05-27T07:04:52.167Z,21.14
2023-05-27T07:07:26.212Z,21.30
2023-05-27T07:10:12.216Z,21.45
2023-05-27T07:12:51.956Z,21.62
2023-05-27T07:15:35.710Z,21.64
2023-05-27T07:18:14.741Z,21.69
2023-05-27T07:20:46.808Z,21.82
2023-05-27T07:23:27.828Z,21.87
2023-05-27T07:26:08.546Z,22.08
2023-05-27T07:28:41.652Z,22.25
2023-05-27T07:31:26.648Z,22.37
2023-05-27T07:34:00.664Z,22.52
2023-05-27T07:36:37.573Z,22.66
2023-05-27T07:39:17.336Z,22.87
2023-05-27T07:41:54.259Z,23.06
2023-05-27T07:44:34.644Z,23.27
2023-05-27T07:47:14.840Z,23.51
2023-05-27T07:50:16.768Z,23.73
2023-05-27T07:52:57.946Z,23.84
2023-05-27T07:55:50.898Z,23.88
2023-05-27T07:58:22.037Z,23.97
2023-05-27T08:01:02.137Z,24.08
2023-05-27T08:03:35.436Z,24.14
2023-05-27T08:06:29.633Z,24.21
2023-05-27T08:09:20.393Z,24.33
2023-05-27T08:12:14.666Z,24.49
2023-05-27T08:14:57.714Z,24.66
2023-05-27T08:18:05.090Z,24.81
2023-05-27T08:20:55.537Z,24.97
2023-05-27T08:23:56.660Z,25.07
2023-05-27T08:26:46.298Z,25.20
2023-05-27T08:29:29.466Z,25.35
2023-05-27T08:32:19.504Z,25.44
2023-05-27T08:34:55.190Z,25.51
2023-05-27T08:37:24.949Z,25.64
2023-05-27T08:40:08.149Z,25.65
2023-05-27T08:42:50.312Z,25.70
2023-05-27T08:45:31.968Z,25.74
2023-05-27T08:48:04.094Z,25.80
2023-05-27T08:50:40.676Z,25.76
2023-05-27T08:53:12.459Z,25.57
2023-05-27T08:55:44.652Z,25.38
2023-05-27T08:58:17.171Z,25.21
2023-05-27T09:00:52.375Z,25.13
2023-05-27T09:03:25.886Z,25.04
2023-05-27T09:06:00.197Z,25.00
2023-05-27T09:08:49.062Z,25.08
2023-05-27T09:11:37.653Z,25.14
2023-05-27T09:14:08.084Z,25.32
2023-05-27T09:16:44.836Z,25.50
2023-05-27T09:19:22.767Z,25.67
2023-05-27T09:21:56.452Z,25.75
2023-05-27T09:24:27.788Z,25.96
2023-05-27T09:27:07.907Z,26.19
2023-05-27T09:29:42.197Z,26.34
2023-05-27T09:32:12.512Z,26.53
2023-05-27T09:34:43.151Z,26.69
2023-05-27T09:37:20.617Z,26.85
2023-05-27T09:39:54.133Z,26.96
2023-05-27T09:42:24.019Z,27.03
2023-05-27T09:44:56.823Z,27.13
2023-05-27T09:47:27.715Z,27.20
2023-05-27T09:49:58.706Z,27.25
2023-05-27T09:52:29.538Z,27.15
2023-05-27T09:55:00.111Z,27.05
2023-05-27T09:57:32.299Z,26.98
2023-05-27T10:00:28.578Z,27.24
2023-05-27T10:03:01.430Z,27.50
2023-05-27T10:05:32.261Z,27.63
2023-05-27T10:10:35.176Z,27.78
2023-05-27T10:13:10.531Z,27.83
2023-05-27T10:15:52.129Z,27.95
2023-05-27T10:18:37.545Z,28.24
2023-05-27T10:21:08.553Z,28.52
2023-05-27T10:23:40.232Z,28.75
2023-05-27T10:26:10.747Z,28.91
2023-05-27T10:28:42.786Z,28.76
2023-05-27T10:31:20.276Z,28.53
2023-05-27T10:33:54.269Z,28.55
2023-05-27T10:36:33.554Z,28.69
2023-05-27T10:39:16.883Z,28.57
2023-05-27T10:41:51.065Z,28.39
2023-05-27T10:44:32.128Z,28.21
2023-05-27T10:47:11.609Z,28.05
2023-05-27T10:49:47.210Z,28.22
2023-05-27T10:52:19.566Z,28.28
2023-05-27T10:54:54.089Z,27.87
2023-05-27T10:57:25.923Z,27.34
2023-05-27T10:59:59.234Z,26.85
2023-05-27T11:02:34.202Z,26.46
2023-05-27T11:05:09.670Z,26.06
2023-05-27T11:07:41.835Z,25.73
2023-05-27T11:10:12.485Z,25.60
2023-05-27T11:12:50.132Z,25.54
2023-05-27T11:15:21.154Z,25.53
2023-05-27T11:17:51.845Z,25.46
2023-05-27T11:20:22.878Z,25.48
2023-05-27T11:22:53.735Z,25.56
2023-05-27T11:25:22.952Z,25.65
2023-05-27T11:27:54.662Z,25.85
2023-05-27T11:30:28.865Z,26.16
2023-05-27T11:33:05.231Z,26.56
2023-05-27T11:35:36.635Z,26.93
2023-05-27T11:38:18.453Z,27.20
2023-05-27T11:40:49.223Z,27.59
2023-05-27T11:43:20.600Z,27.93
2023-05-27T11:45:51.198Z,28.19
2023-05-27T11:48:22.989Z,28.40
2023-05-27T11:50:53.536Z,28.52
2023-05-27T11:53:24.683Z,28.59
2023-05-27T11:55:54.912Z,28.82
2023-05-27T11:58:25.891Z,29.09
2023-05-27T12:00:56.387Z,28.92
2023-05-27T12:03:26.927Z,28.93
2023-05-27T12:05:56.409Z,29.17
2023-05-27T12:08:27.482Z,29.07
2023-05-27T12:10:58.633Z,28.78
2023-05-27T12:13:30.707Z,28.48
2023-05-27T12:16:01.516Z,28.19
2023-05-27T12:18:34.570Z,27.90
2023-05-27T12:21:05.888Z,27.70
2023-05-27T12:23:36.324Z,27.53
2023-05-27T12:26:06.662Z,27.33
2023-05-27T12:28:37.054Z,27.24
2023-05-27T12:31:09.288Z,27.16
2023-05-27T12:33:39.851Z,27.07
2023-05-27T12:36:12.545Z,26.88
2023-05-27T12:38:43.238Z,26.66
2023-05-27T12:41:14.165Z,26.54
2023-05-27T12:43:44.729Z,26.45
2023-05-27T12:46:16.647Z,26.41
2023-05-27T12:48:47.743Z,26.36
2023-05-27T12:51:18.264Z,26.38
2023-05-27T12:53:49.969Z,26.52
2023-05-27T12:56:20.608Z,26.60
2023-05-27T12:58:51.032Z,26.65
2023-05-27T13:01:21.325Z,26.58
2023-05-27T13:03:52.914Z,26.41
2023-05-27T13:06:23.283Z,26.15
2023-05-27T13:08:52.532Z,25.79
2023-05-27T13:11:23.593Z,25.43
2023-05-27T13:13:54.073Z,25.09
2023-05-27T13:16:24.505Z,24.75
2023-05-27T13:18:54.754Z,24.44
2023-05-27T13:21:25.309Z,23.90
2023-05-27T13:23:55.671Z,22.77
2023-05-27T13:26:27.718Z,21.70
2023-05-27T13:28:58.535Z,21.01
2023-05-27T13:31:29.090Z,20.58
2023-05-27T13:34:09.908Z,20.09
2023-05-27T13:36:51.186Z,19.58
2023-05-27T13:42:55.232Z,18.95
2023-05-27T13:45:36.327Z,18.66
2023-05-27T13:48:07.535Z,18.23
2023-05-27T13:51:05.489Z,18.07
2023-05-27T13:53:46.750Z,17.93
2023-05-27T13:56:17.305Z,17.75
2023-05-27T13:59:21.993Z,17.61
2023-05-27T14:02:11.845Z,17.45
2023-05-27T14:05:02.178Z,17.24
2023-05-27T14:07:56.261Z,17.09
2023-05-27T14:10:50.002Z,16.96
2023-05-27T14:14:15.350Z,16.81
2023-05-27T14:16:59.120Z,16.44
2023-05-27T14:19:59.468Z,16.19
2023-05-27T14:23:24.298Z,16.18
2023-05-27T14:26:38.271Z,16.22
2023-05-27T14:29:47.617Z,16.21
2023-05-27T14:33:00.605Z,16.18
2023-05-27T14:35:53.983Z,16.13
2023-05-27T14:39:10.788Z,16.13
2023-05-27T14:42:21.700Z,16.13
2023-05-27T14:45:23.091Z,16.09
2023-05-27T14:48:35.436Z,16.06
2023-05-27T14:51:30.984Z,16.05
2023-05-27T14:54:29.753Z,16.06
2023-05-27T15:29:10.966Z,16.07
2023-05-27T15:32:26.739Z,16.08
2023-05-27T15:35:37.345Z,16.13
2023-05-27T15:38:32.784Z,16.19
2023-05-27T15:42:04.588Z,16.23
2023-05-27T15:45:55.882Z,16.20
2023-05-27T15:49:12.070Z,16.21
2023-05-27T15:52:17.851Z,16.23
2023-05-27T15:55:09.259Z,16.26
2023-05-27T15:57:58.850Z,16.24
2023-05-27T16:01:05.070Z,16.13
2023-05-27T16:04:19.608Z,16.08
2023-05-27T16:07:26.320Z,16.02
2023-05-27T16:10:16.776Z,16.05
2023-05-27T16:13:12.569Z,16.08
2023-05-27T16:16:35.332Z,16.11
2023-05-27T16:19:44.409Z,16.20
2023-05-27T16:23:07.588Z,16.28
2023-05-27T16:26:39.945Z,16.33
2023-05-27T17:10:25.503Z,16.80
2023-05-27T17:13:27.384Z,16.85
2023-05-27T17:16:23.716Z,16.88
2023-05-27T17:19:45.190Z,16.91
2023-05-27T17:22:41.405Z,16.90
2023-05-27T17:26:17.406Z,16.87
2023-05-27T17:29:07.889Z,16.76
2023-05-27T17:32:04.058Z,16.74
2023-05-27T17:35:21.071Z,16.77
2023-05-27T17:42:00.039Z,16.85
2023-05-27T17:44:49.889Z,16.84
2023-05-27T17:47:53.284Z,16.76
2023-05-27T17:54:29.667Z,16.71
2023-05-27T18:00:15.968Z,16.74
2023-05-27T18:02:56.482Z,16.65
2023-05-27T18:06:10.587Z,16.59
2023-05-27T18:09:06.114Z,16.59
2023-05-27T18:11:54.722Z,16.59
2023-05-27T18:14:44.765Z,16.57
2023-05-27T18:17:47.044Z,16.54
2023-05-27T18:21:02.285Z,16.52
2023-05-27T18:24:15.514Z,16.46
2023-05-27T18:27:08.006Z,16.36
2023-05-27T18:30:23.272Z,16.29
2023-05-27T18:33:17.517Z,16.18
2023-05-27T18:36:08.335Z,16.09
2023-05-27T18:39:31.984Z,16.04
2023-05-27T18:42:34.442Z,15.95
2023-05-27T18:45:29.782Z,15.96
2023-05-27T18:48:46.570Z,15.89
2023-05-27T18:51:50.360Z,15.67
2023-05-27T19:01:46.811Z,15.53
2023-05-27T19:05:20.440Z,15.55
2023-05-27T19:08:41.890Z,15.54
2023-05-27T19:11:45.260Z,15.55
2023-05-27T19:15:20.492Z,15.58
2023-05-27T19:18:23.815Z,15.57
2023-05-27T19:21:45.133Z,15.52
2023-05-27T19:24:26.630Z,15.47
2023-05-27T19:27:17.188Z,15.47
2023-05-27T19:30:23.009Z,15.45
2023-05-27T19:33:15.902Z,15.37
2023-05-27T19:36:51.263Z,15.31
2023-05-27T19:39:51.854Z,15.22
2023-05-27T19:42:52.302Z,15.16
2023-05-27T19:46:25.571Z,15.14
2023-05-27T19:49:28.312Z,15.05
2023-05-27T19:52:50.638Z,14.98
2023-05-27T19:55:47.693Z,14.90
2023-05-27T19:59:22.564Z,14.84
2023-05-27T20:16:32.623Z,14.54
2023-05-27T20:20:23.017Z,14.38
2023-05-27T20:24:09.495Z,14.30
2023-05-27T20:27:51.382Z,14.25
2023-05-27T20:31:22.743Z,14.21
2023-05-27T20:46:58.209Z,14.02
2023-05-27T20:50:32.021Z,13.92
2023-05-27T21:09:30.499Z,13.68
2023-05-27T21:13:22.350Z,13.55
2023-05-27T21:17:15.061Z,13.52
2023-05-27T21:21:06.598Z,13.40
2023-05-27T21:25:01.098Z,13.36
2023-05-27T21:28:44.558Z,13.39
2023-05-27T21:43:41.274Z,13.22
2023-05-27T21:47:34.276Z,13.07
2023-05-27T21:51:16.315Z,13.03
2023-05-27T22:10:22.156Z,12.79
2023-05-27T22:13:55.106Z,12.75
2023-05-27T22:17:28.986Z,12.77
2023-05-27T22:21:42.480Z,12.81
2023-05-27T22:25:33.975Z,12.72
2023-05-27T22:29:30.048Z,12.62
2023-05-27T22:36:12.759Z,12.57
2023-05-27T22:39:02.734Z,12.51
2023-05-27T22:41:43.309Z,12.45
2023-05-27T22:45:13.601Z,12.39
2023-05-27T22:48:07.375Z,12.32
2023-05-27T22:51:44.626Z,12.22
2023-05-27T22:54:23.857Z,12.12
2023-05-27T22:57:46.513Z,12.12
2023-05-27T23:00:50.936Z,12.09
2023-05-27T23:03:54.539Z,12.02
2023-05-27T23:07:18.551Z,11.93
2023-05-27T23:10:20.930Z,11.91
2023-05-27T23:13:05.091Z,11.90
2023-05-27T23:16:09.500Z,11.89
2023-05-27T23:19:35.212Z,11.85
2023-05-27T23:22:41.362Z,11.84
2023-05-27T23:25:41.509Z,11.85
2023-05-27T23:28:53.790Z,11.87
2023-05-27T23:32:25.460Z,11.86
2023-05-27T23:35:45.396Z,11.84
2023-05-27T23:38:39.324Z,11.84
2023-05-27T23:42:15.072Z,11.81
